ZUGY

Guiyang Longdongbao International

Airport
ICAO code
ZUGY
IATA Code
KWE
Summary
ICAO Region
APAC
ICAO Territory
Location

Guiyang, Guizhou,

Serving
Guiyang
Coordinates
26° 32' 26" N , 106° 48' 1" E
KCC
Metar
ZUGY 242100Z 05002MPS 9999 FEW010 SCT016 OVC040 18/17 Q1014 NOSIG

Description

Guiyang Longdongbao International Airport is an airport in Guiyang, Guizhou, China..

Climatology

Within the Köppen Climate Classification System, ((Koppen climate classification Cwa)) this climate type generally has warm and humid summers with mild winters. Its extent is from 30 to 50° of latitude mainly on the eastern and western borders of most continents. During the winter, the main weather feature is the mid-latitude cyclone. Convective thunderstorms provide precipitation in the summer months.

Airport map

Aerial View

SKYbrary Partners:

Safety knowledge contributed by: